Time;durP1;ratioP1;P1;durP2;ratioP2;P2;SDS_P1;SDS_P2;PMS_P1;PMS_P2;Temp;Humidity;BMP_temperature;BMP_pressure;BME280_temperature;BME280_humidity;BME280_pressure;Samples;Min_cycle;Max_cycle;Signal;HPM_P1;HPM_P2
2023/04/17 00:01:02;;;;;;;88.25;38.20;;;;;;;8.07;100.00;102534.22;4980520;28;20036;-77
2023/04/17 00:03:30;;;;;;;79.45;37.97;;;;;;;7.97;100.00;102533.47;5028837;28;20452;-78
2023/04/17 00:05:57;;;;;;;92.82;40.25;;;;;;;7.98;100.00;102537.03;5016142;28;20041;-78
2023/04/17 00:08:23;;;;;;;83.72;37.35;;;;;;;8.00;100.00;102535.22;5027486;28;20044;-80
2023/04/17 00:10:49;;;;;;;97.95;40.78;;;;;;;8.01;100.00;102526.31;5031471;28;20033;-78
2023/04/17 00:13:15;;;;;;;104.40;43.00;;;;;;;8.05;100.00;102533.38;5020615;28;20049;-78
2023/04/17 00:15:42;;;;;;;87.55;40.33;;;;;;;8.01;100.00;102526.31;5022728;28;20049;-79
2023/04/17 00:18:09;;;;;;;97.55;41.05;;;;;;;7.99;100.00;102540.56;5026138;28;20603;-78
2023/04/17 00:20:35;;;;;;;107.70;42.38;;;;;;;8.00;100.00;102534.34;5016574;28;20470;-79
2023/04/17 00:23:01;;;;;;;101.28;44.08;;;;;;;7.98;100.00;102537.03;5025152;28;20513;-78
2023/04/17 00:25:28;;;;;;;101.70;41.80;;;;;;;7.93;100.00;102536.22;5023069;28;20173;-79
2023/04/17 00:27:54;;;;;;;113.30;43.40;;;;;;;7.91;100.00;102535.38;5026973;28;20505;-78
2023/04/17 00:30:20;;;;;;;107.38;42.90;;;;;;;7.92;100.00;102534.47;5002918;28;20430;-79
2023/04/17 00:32:46;;;;;;;106.00;42.53;;;;;;;7.90;100.00;102533.59;5011109;28;20054;-79
2023/04/17 00:35:13;;;;;;;107.38;45.30;;;;;;;7.84;100.00;102529.28;5002258;28;20045;-79
2023/04/17 00:37:39;;;;;;;101.90;41.72;;;;;;;7.87;100.00;102534.56;5023818;28;20037;-79
2023/04/17 00:40:06;;;;;;;111.63;45.35;;;;;;;7.93;100.00;102533.56;5023905;28;20398;-78
2023/04/17 00:42:32;;;;;;;107.45;43.88;;;;;;;7.86;100.00;102524.81;4985266;28;20108;-79
2023/04/17 00:44:59;;;;;;;114.93;44.78;;;;;;;7.90;100.00;102526.53;5022957;28;20064;-78
2023/04/17 00:47:25;;;;;;;105.13;43.40;;;;;;;7.90;100.00;102533.59;5025027;28;20434;-80
2023/04/17 00:49:52;;;;;;;102.03;43.15;;;;;;;7.88;100.00;102532.75;5028981;28;20037;-79
2023/04/17 00:52:28;;;;;;;89.10;41.53;;;;;;;7.82;100.00;102544.38;5014168;28;20466;-78
2023/04/17 00:54:55;;;;;;;99.00;40.60;;;;;;;7.78;100.00;102528.50;5034163;28;20155;-79
2023/04/17 00:57:23;;;;;;;97.75;41.15;;;;;;;7.82;100.00;102524.91;5027275;28;20130;-79
2023/04/17 00:59:49;;;;;;;83.95;37.80;;;;;;;7.80;100.00;102521.38;5025645;28;20033;-78
2023/04/17 01:02:16;;;;;;;89.55;40.05;;;;;;;7.84;100.00;102523.09;5022401;28;20493;-78
2023/04/17 01:04:43;;;;;;;95.82;41.42;;;;;;;7.82;100.00;102524.91;5011298;28;20033;-79
2023/04/17 01:07:09;;;;;;;101.05;43.05;;;;;;;7.86;100.00;102526.59;5009257;28;20475;-78
2023/04/17 01:09:35;;;;;;;106.22;43.50;;;;;;;7.86;100.00;102522.16;5022092;28;20044;-78
2023/04/17 01:12:24;;;;;;;84.53;40.17;;;;;;;7.84;100.00;102523.97;5018792;28;20568;-78
2023/04/17 01:14:54;;;;;;;89.20;40.20;;;;;;;7.86;100.00;102530.13;5019089;28;20030;-78
2023/04/17 01:17:21;;;;;;;90.07;39.97;;;;;;;7.86;100.00;102531.91;5019282;28;20108;-78
2023/04/17 01:19:48;;;;;;;88.40;42.72;;;;;;;7.92;100.00;102535.34;5021141;28;20180;-78
2023/04/17 01:22:15;;;;;;;93.32;42.85;;;;;;;7.93;100.00;102533.56;5030893;28;20044;-78
2023/04/17 01:24:42;;;;;;;99.78;43.50;;;;;;;7.96;100.00;102530.88;5009067;28;20057;-78
2023/04/17 01:27:12;;;;;;;107.15;45.03;;;;;;;7.94;100.00;102530.03;5021689;28;20061;-77
2023/04/17 01:29:41;;;;;;;94.10;41.72;;;;;;;7.95;100.00;102531.75;5005961;28;20044;-78
2023/04/17 01:32:08;;;;;;;87.15;40.25;;;;;;;7.86;100.00;102527.47;5024941;28;20116;-78
2023/04/17 01:34:34;;;;;;;76.75;39.58;;;;;;;7.85;100.00;102527.50;5007673;28;20041;-78
2023/04/17 01:37:01;;;;;;;85.53;41.65;;;;;;;7.88;100.00;102525.69;4987867;28;20132;-78
2023/04/17 01:39:27;;;;;;;91.30;39.97;;;;;;;7.87;100.00;102528.38;4991504;28;20133;-78
2023/04/17 01:41:54;;;;;;;78.82;39.40;;;;;;;7.88;100.00;102524.78;5007681;28;20486;-80
2023/04/17 01:44:20;;;;;;;81.07;39.90;;;;;;;7.92;100.00;102532.69;5024956;28;20414;-78
2023/04/17 01:46:47;;;;;;;84.03;39.53;;;;;;;7.93;100.00;102534.44;5009734;28;20307;-78
2023/04/17 01:49:15;;;;;;;83.72;41.05;;;;;;;7.95;100.00;102531.75;5014421;28;20087;-78
2023/04/17 01:51:41;;;;;;;74.07;37.85;;;;;;;7.91;100.00;102530.94;5020934;28;20375;-78
2023/04/17 01:54:07;;;;;;;80.75;39.67;;;;;;;7.89;100.00;102530.09;5015765;28;20045;-78
2023/04/17 01:56:34;;;;;;;81.00;38.97;;;;;;;7.93;100.00;102534.44;5019148;28;20509;-78
2023/04/17 01:59:01;;;;;;;82.03;39.65;;;;;;;7.94;100.00;102538.00;5010266;28;20076;-78
2023/04/17 02:01:27;;;;;;;84.93;39.75;;;;;;;7.96;100.00;102533.53;5016465;28;20085;-77
2023/04/17 02:03:53;;;;;;;82.03;38.88;;;;;;;7.93;100.00;102533.56;5017985;28;20037;-78
2023/04/17 02:06:19;;;;;;;90.43;41.80;;;;;;;7.93;100.00;102545.06;5024840;28;20068;-78
2023/04/17 02:08:46;;;;;;;79.47;38.50;;;;;;;7.93;100.00;102538.88;4989747;28;20458;-78
2023/04/17 02:11:14;;;;;;;65.85;35.35;;;;;;;7.90;100.00;102537.16;5008311;28;20410;-79
2023/04/17 02:13:41;;;;;;;68.38;37.05;;;;;;;7.94;100.00;102530.88;5005460;28;20128;-78
2023/04/17 02:16:08;;;;;;;70.40;34.85;;;;;;;8.00;100.00;102537.88;5020233;28;20061;-79
2023/04/17 02:18:34;;;;;;;64.80;35.28;;;;;;;7.99;100.00;102533.44;5005261;28;20053;-78
2023/04/17 02:21:01;;;;;;;69.97;34.05;;;;;;;7.99;100.00;102533.44;5007329;28;20133;-78
2023/04/17 02:23:28;;;;;;;58.97;32.95;;;;;;;7.99;100.00;102533.44;5003868;28;20037;-78
2023/04/17 02:25:54;;;;;;;60.97;31.98;;;;;;;8.02;100.00;102538.72;5021252;28;20087;-78
2023/04/17 02:28:21;;;;;;;52.03;31.10;;;;;;;8.00;100.00;102540.53;5007456;28;20115;-81
2023/04/17 02:30:47;;;;;;;51.10;28.70;;;;;;;7.94;100.00;102535.34;4993079;28;20045;-78
2023/04/17 02:33:13;;;;;;;56.80;30.15;;;;;;;7.88;100.00;102532.75;5021114;28;20038;-78
2023/04/17 02:35:40;;;;;;;51.65;30.92;;;;;;;7.91;100.00;102530.94;5004480;28;20054;-78
2023/04/17 02:38:06;;;;;;;56.90;29.88;;;;;;;7.96;100.00;102528.22;5023702;28;20470;-79
2023/04/17 02:40:33;;;;;;;54.63;30.17;;;;;;;7.97;100.00;102530.81;5007024;28;20029;-78
2023/04/17 02:43:01;;;;;;;58.05;31.02;;;;;;;7.95;100.00;102532.63;5002563;28;20499;-77
2023/04/17 02:45:29;;;;;;;52.72;30.80;;;;;;;7.96;100.00;102522.88;5013973;28;20081;-78
2023/04/17 02:47:55;;;;;;;50.53;29.48;;;;;;;7.96;100.00;102530.88;5022353;28;20069;-78
2023/04/17 02:50:22;;;;;;;50.60;28.20;;;;;;;7.92;100.00;102526.47;5016142;28;20030;-79
2023/04/17 02:53:04;;;;;;;50.83;28.65;;;;;;;7.87;100.00;102525.72;5009456;28;20033;-79
2023/04/17 02:55:31;;;;;;;55.72;30.95;;;;;;;7.82;100.00;102528.41;5020139;28;20108;-77
2023/04/17 02:57:57;;;;;;;55.55;31.10;;;;;;;7.55;100.00;102484.59;5015704;28;20044;-79
2023/04/17 03:00:25;;;;;;;56.63;29.90;;;;;;;7.80;100.00;102532.91;5016600;28;20050;-79
2023/04/17 03:02:51;;;;;;;54.20;28.55;;;;;;;7.80;100.00;102526.72;5019601;28;20037;-78
2023/04/17 03:05:19;;;;;;;55.83;29.45;;;;;;;7.78;100.00;102526.72;5007362;28;20064;-79
2023/04/17 03:07:45;;;;;;;50.00;28.48;;;;;;;7.76;100.00;102531.19;5007734;28;20391;-79
2023/04/17 03:10:13;;;;;;;56.78;30.48;;;;;;;7.81;100.00;102528.44;5009385;28;20034;-78
2023/04/17 03:12:39;;;;;;;59.88;32.85;;;;;;;7.82;100.00;102535.53;5023319;28;20048;-78
2023/04/17 03:15:06;;;;;;;52.65;28.33;;;;;;;7.81;100.00;102528.44;5017682;28;20045;-78
2023/04/17 03:17:33;;;;;;;54.35;30.45;;;;;;;7.86;100.00;102532.78;5019529;28;20046;-78
2023/04/17 03:20:00;;;;;;;56.20;31.13;;;;;;;7.89;100.00;102523.91;5006728;28;20037;-78
2023/04/17 03:22:26;;;;;;;61.05;31.90;;;;;;;7.91;100.00;102522.09;5013125;28;20025;-78
2023/04/17 03:24:52;;;;;;;63.25;33.92;;;;;;;7.88;100.00;102524.78;5034304;28;20040;-78
2023/04/17 03:27:23;;;;;;;66.93;35.55;;;;;;;7.93;100.00;102528.25;5034288;28;20033;-78
2023/04/17 03:29:50;;;;;;;;;;;;;;;7.96;100.00;102520.22;5044494;28;20043;-79
2023/04/17 03:32:18;;;;;;;69.35;33.53;;;;;;;7.91;100.00;102532.72;4994851;28;19948;-78
2023/04/17 03:34:44;;;;;;;63.38;33.83;;;;;;;7.85;100.00;102519.53;5015222;28;20515;-79
2023/04/17 03:37:11;;;;;;;70.72;38.03;;;;;;;7.90;100.00;102522.97;5022663;28;20029;-79
2023/04/17 03:39:37;;;;;;;68.93;35.58;;;;;;;7.90;100.00;102523.88;5011999;28;20059;-78
2023/04/17 03:42:03;;;;;;;78.43;37.67;;;;;;;7.87;100.00;102533.69;4982528;28;20406;-79
2023/04/17 03:44:30;;;;;;;74.97;37.20;;;;;;;7.85;100.00;102530.16;4995410;28;20378;-79
2023/04/17 03:46:56;;;;;;;74.07;37.92;;;;;;;7.88;100.00;102535.41;5043171;28;20029;-79
2023/04/17 03:49:23;;;;;;;77.03;38.40;;;;;;;7.92;100.00;102539.78;5011135;28;20037;-79
2023/04/17 03:51:51;;;;;;;70.53;38.95;;;;;;;7.94;100.00;102535.34;5026154;28;20199;-80
2023/04/17 03:54:20;;;;;;;78.85;40.30;;;;;;;7.91;100.00;102530.94;5011628;28;20060;-78
2023/04/17 03:56:49;;;;;;;80.43;41.25;;;;;;;7.93;100.00;102538.88;5021898;28;20032;-78
2023/04/17 03:59:15;;;;;;;76.47;39.28;;;;;;;7.95;100.00;102542.38;5028563;28;20041;-78
2023/04/17 04:01:45;;;;;;;80.38;40.10;;;;;;;7.92;100.00;102542.44;5017826;28;20096;-80
2023/04/17 04:04:20;;;;;;;74.45;39.15;;;;;;;7.88;100.00;102538.97;5027037;28;20120;-79
2023/04/17 04:06:48;;;;;;;78.57;39.58;;;;;;;7.88;100.00;102538.06;5015529;28;20041;-78
2023/04/17 04:09:18;;;;;;;71.82;38.97;;;;;;;7.87;100.00;102539.88;5030496;28;20505;-78
2023/04/17 04:11:44;;;;;;;74.30;39.65;;;;;;;7.94;100.00;102543.31;5026263;28;20044;-78
2023/04/17 04:14:10;;;;;;;76.47;40.55;;;;;;;7.95;100.00;102547.72;5033620;28;20398;-78
2023/04/17 04:16:37;;;;;;;70.70;37.50;;;;;;;7.92;100.00;102540.69;5025676;28;20033;-78
2023/04/17 04:19:12;;;;;;;81.22;38.72;;;;;;;7.93;100.00;102541.53;5026918;28;20045;-79
2023/04/17 04:21:38;;;;;;;79.18;39.38;;;;;;;7.89;100.00;102543.38;5022762;28;20140;-81
2023/04/17 04:24:08;;;;;;;78.40;40.03;;;;;;;7.96;100.00;102538.84;5018732;28;20063;-78
2023/04/17 04:26:36;;;;;;;76.10;39.28;;;;;;;8.00;100.00;102537.88;5020885;28;20026;-78
2023/04/17 04:29:03;;;;;;;75.97;39.58;;;;;;;8.01;100.00;102542.28;5018635;28;20089;-79
2023/04/17 04:31:37;;;;;;;75.72;39.35;;;;;;;7.98;100.00;102547.66;5021670;28;20040;-79
2023/04/17 04:34:04;;;;;;;79.72;39.17;;;;;;;7.87;100.00;102545.19;5021329;28;20033;-79
2023/04/17 04:36:34;;;;;;;78.10;38.88;;;;;;;7.87;100.00;102546.97;5013192;28;20036;-79
2023/04/17 04:39:19;;;;;;;72.72;39.92;;;;;;;7.86;100.00;102546.06;5027186;28;20480;-79
2023/04/17 04:41:50;;;;;;;78.00;40.30;;;;;;;7.91;100.00;102548.66;5016555;28;20061;-78
2023/04/17 04:44:18;;;;;;;78.28;40.40;;;;;;;7.92;100.00;102555.72;5021193;28;20064;-78
2023/04/17 04:46:45;;;;;;;77.53;40.92;;;;;;;7.90;100.00;102552.22;5004710;28;20121;-78
2023/04/17 04:49:12;;;;;;;79.72;39.63;;;;;;;7.94;100.00;102551.28;5020665;28;20033;-79
2023/04/17 04:51:38;;;;;;;70.60;37.95;;;;;;;7.90;100.00;102550.47;5028762;28;20061;-78
2023/04/17 04:54:07;;;;;;;71.38;39.03;;;;;;;7.91;100.00;102551.34;5015888;28;20036;-78
2023/04/17 04:56:43;;;;;;;72.63;38.72;;;;;;;7.95;100.00;102551.25;5029653;28;20045;-78
2023/04/17 04:59:10;;;;;;;78.88;37.63;;;;;;;8.01;100.00;102557.38;5023145;28;20393;-78
2023/04/17 05:01:43;;;;;;;80.80;40.42;;;;;;;8.00;100.00;102553.84;5009145;28;20041;-80
2023/04/17 05:04:10;;;;;;;78.05;39.72;;;;;;;8.01;100.00;102560.03;4997371;28;20032;-79
2023/04/17 05:06:37;;;;;;;74.47;37.58;;;;;;;8.00;100.00;102566.25;5004223;28;20426;-79
2023/04/17 05:09:03;;;;;;;82.32;41.42;;;;;;;8.03;100.00;102567.06;5042354;28;20041;-79
2023/04/17 05:11:32;;;;;;;82.93;41.88;;;;;;;8.05;100.00;102559.97;5008076;28;20037;-78
2023/04/17 05:14:00;;;;;;;88.45;43.20;;;;;;;8.03;100.00;102567.06;5011203;28;20045;-78
2023/04/17 05:16:33;;;;;;;88.55;42.60;;;;;;;7.98;100.00;102571.59;5032896;28;20029;-78
2023/04/17 05:19:00;;;;;;;85.00;41.05;;;;;;;7.97;100.00;102573.38;5024919;28;20045;-78
2023/04/17 05:21:46;;;;;;;89.85;41.83;;;;;;;7.99;100.00;102578.66;5038902;28;20509;-79
2023/04/17 05:24:12;;;;;;;80.35;40.50;;;;;;;8.02;100.00;102580.41;4981148;28;20030;-79
2023/04/17 05:26:39;;;;;;;81.13;41.35;;;;;;;8.05;100.00;102575.91;5033333;28;20039;-79
2023/04/17 05:29:07;;;;;;;88.03;42.58;;;;;;;8.05;100.00;102580.34;5016947;28;20037;-80
2023/04/17 05:31:35;;;;;;;84.50;41.20;;;;;;;8.08;100.00;102581.16;5023552;28;20033;-78
2023/04/17 05:34:07;;;;;;;81.82;41.80;;;;;;;8.07;100.00;102578.53;5009228;28;20045;-77
2023/04/17 05:36:33;;;;;;;85.90;42.72;;;;;;;8.10;100.00;102582.00;5027938;28;20501;-78
2023/04/17 05:39:02;;;;;;;78.00;40.50;;;;;;;8.10;100.00;102581.16;5009031;28;20094;-79
2023/04/17 05:41:30;;;;;;;85.97;43.30;;;;;;;8.13;100.00;102587.28;5017744;28;20131;-79
2023/04/17 05:43:56;;;;;;;85.38;40.38;;;;;;;8.11;100.00;102575.81;5049520;28;20070;-79
2023/04/17 05:46:22;;;;;;;66.22;37.90;;;;;;;8.08;100.00;102581.16;5029367;28;20021;-79
2023/04/17 05:48:49;;;;;;;74.32;39.25;;;;;;;8.10;100.00;102578.50;5041580;28;20059;-79
2023/04/17 05:51:15;;;;;;;62.63;35.78;;;;;;;7.95;100.00;102580.50;5022552;28;20024;-79
2023/04/17 05:53:43;;;;;;;68.20;35.08;;;;;;;7.86;100.00;102585.09;5010196;28;20394;-78
2023/04/17 05:56:10;;;;;;;70.10;37.45;;;;;;;7.90;100.00;102592.09;5013745;28;20104;-79
2023/04/17 05:58:37;;;;;;;75.53;39.78;;;;;;;7.88;100.00;102586.84;4994706;28;20078;-80
2023/04/17 06:01:04;;;;;;;68.45;38.55;;;;;;;7.83;100.00;102591.34;5025095;28;20025;-77
2023/04/17 06:03:34;;;;;;;80.90;39.80;;;;;;;7.89;100.00;102588.59;5022137;28;20037;-80
2023/04/17 06:06:07;;;;;;;72.05;38.20;;;;;;;7.80;100.00;102590.50;5028603;28;20421;-79
2023/04/17 06:08:34;;;;;;;75.65;39.67;;;;;;;7.88;100.00;102593.91;5016776;28;20053;-79
2023/04/17 06:11:00;;;;;;;75.97;38.22;;;;;;;7.87;100.00;102593.03;5032533;28;20098;-79
2023/04/17 06:13:27;;;;;;;81.20;39.50;;;;;;;7.90;100.00;102598.31;5000290;28;20025;-80
2023/04/17 06:15:53;;;;;;;72.30;38.75;;;;;;;7.88;100.00;102601.91;5019724;28;20032;-77
2023/04/17 06:18:20;;;;;;;81.45;41.38;;;;;;;8.03;100.00;102604.31;5003127;28;20123;-78
2023/04/17 06:20:46;;;;;;;77.75;40.50;;;;;;;8.11;100.00;102610.38;5024655;28;20033;-78
2023/04/17 06:23:12;;;;;;;84.60;44.25;;;;;;;8.11;100.00;102620.16;5029260;28;20092;-78
2023/04/17 06:25:39;;;;;;;92.25;45.38;;;;;;;8.15;100.00;102619.19;5026786;28;20041;-78
2023/04/17 06:28:05;;;;;;;68.15;38.42;;;;;;;8.22;100.00;102615.53;5047828;28;20414;-78
2023/04/17 06:30:34;;;;;;;79.38;46.78;;;;;;;8.26;100.00;102616.38;5030582;28;20040;-78
2023/04/17 06:33:01;;;;;;;76.10;46.33;;;;;;;8.21;100.00;102618.22;5038717;28;20072;-78
2023/04/17 06:35:28;;;;;;;71.65;41.20;;;;;;;8.26;100.00;102622.56;5036340;28;20422;-77
2023/04/17 06:38:01;;;;;;;79.88;40.63;;;;;;;8.29;100.00;102621.59;5031819;28;20032;-77
2023/04/17 06:40:27;;;;;;;73.30;37.67;;;;;;;8.34;100.00;102627.75;4999784;28;20037;-78
2023/04/17 06:42:53;;;;;;;70.75;38.63;;;;;;;8.37;100.00;102635.69;5051358;28;20452;-78
2023/04/17 06:45:21;;;;;;;75.07;38.88;;;;;;;8.40;100.00;102640.94;5031956;28;20138;-78
2023/04/17 06:47:47;;;;;;;76.35;40.03;;;;;;;8.38;100.00;102636.56;5015421;28;20632;-78
2023/04/17 06:50:17;;;;;;;70.43;36.65;;;;;;;8.32;100.00;102642.84;5014577;28;20888;-79
2023/04/17 06:52:43;;;;;;;74.30;38.55;;;;;;;8.23;100.00;102646.53;5032122;28;20174;-77
2023/04/17 06:55:09;;;;;;;74.60;37.55;;;;;;;8.24;100.00;102652.75;5015301;28;20040;-78
2023/04/17 06:57:37;;;;;;;71.75;37.97;;;;;;;8.17;100.00;102653.75;5034166;28;20048;-78
2023/04/17 07:00:03;;;;;;;73.50;39.72;;;;;;;8.12;100.00;102665.34;5017897;28;20060;-78
2023/04/17 07:02:30;;;;;;;78.97;39.08;;;;;;;8.01;100.00;102666.41;5034613;28;20033;-78
2023/04/17 07:04:56;;;;;;;69.38;39.42;;;;;;;8.08;100.00;102666.28;5053825;28;20120;-77
2023/04/17 07:07:22;;;;;;;87.68;40.47;;;;;;;8.15;100.00;102665.28;5035470;28;20037;-78
2023/04/17 07:09:49;;;;;;;80.43;42.20;;;;;;;8.09;100.00;102660.06;5032049;28;20123;-79
2023/04/17 07:12:15;;;;;;;72.53;40.28;;;;;;;8.27;100.00;102660.66;5035702;28;20037;-78
2023/04/17 07:14:42;;;;;;;70.53;40.05;;;;;;;8.46;100.00;102659.50;5035803;28;20179;-78
2023/04/17 07:17:08;;;;;;;73.70;40.92;;;;;;;8.48;100.00;102664.78;5018540;28;20049;-78
2023/04/17 07:19:36;;;;;;;74.32;40.40;;;;;;;8.50;100.00;102663.88;5016048;28;20049;-78
2023/04/17 07:22:04;;;;;;;67.10;38.85;;;;;;;8.56;100.00;102667.34;5018786;28;20523;-78
2023/04/17 07:24:33;;;;;;;75.75;40.47;;;;;;;8.68;100.00;102672.41;5018234;28;20371;-78
2023/04/17 07:27:01;;;;;;;79.38;41.50;;;;;;;8.68;100.00;102672.41;5035900;28;20052;-78
2023/04/17 07:29:27;;;;;;;81.47;43.13;;;;;;;8.62;100.00;102664.56;5034113;28;20390;-77
2023/04/17 07:31:53;;;;;;;85.32;43.88;;;;;;;8.44;100.00;102624.06;5052921;28;20409;-76
2023/04/17 07:34:20;;;;;;;71.15;40.75;;;;;;;8.73;100.00;102650.13;5017260;28;20481;-78
2023/04/17 07:36:49;;;;;;;78.55;42.50;;;;;;;8.81;100.00;102659.75;5035061;28;20132;-78
2023/04/17 07:39:15;;;;;;;81.80;41.00;;;;;;;8.80;100.00;102663.34;5033022;28;20043;-78
2023/04/17 07:41:41;;;;;;;82.03;42.28;;;;;;;8.81;100.00;102660.63;5051797;28;20195;-78
2023/04/17 07:44:07;;;;;;;84.78;42.15;;;;;;;8.80;100.00;102664.22;5014953;28;20054;-79
2023/04/17 07:46:34;;;;;;;87.25;42.53;;;;;;;8.75;100.00;102652.75;5016968;28;20037;-78
2023/04/17 07:49:00;;;;;;;89.53;42.97;;;;;;;8.80;100.00;102660.69;5051719;28;20086;-78
2023/04/17 07:51:26;;;;;;;92.85;45.15;;;;;;;8.88;100.00;102659.59;5035661;28;20044;-78
2023/04/17 07:53:53;;;;;;;94.28;44.60;;;;;;;8.90;100.00;102663.13;5016895;28;20066;-78
2023/04/17 07:56:19;;;;;;;89.97;45.75;;;;;;;8.95;100.00;102665.72;5052488;28;20099;-78
2023/04/17 07:58:45;;;;;;;78.63;42.50;;;;;;;9.01;100.00;102670.91;5033339;28;20397;-79
2023/04/17 08:01:12;;;;;;;80.80;39.80;;;;;;;9.18;100.00;102673.25;5035435;28;20128;-80
2023/04/17 08:03:40;;;;;;;85.18;41.70;;;;;;;9.22;100.00;102661.59;5051769;28;20394;-78
2023/04/17 08:06:06;;;;;;;75.20;39.47;;;;;;;9.25;100.00;102664.22;5017787;28;20139;-78
2023/04/17 08:08:32;;;;;;;80.85;40.53;;;;;;;9.32;100.00;102671.19;5032101;28;20086;-78
2023/04/17 08:10:59;;;;;;;72.53;39.25;;;;;;;9.37;100.00;102670.19;5033326;28;20036;-78
2023/04/17 08:13:25;;;;;;;82.88;41.35;;;;;;;9.32;100.00;102665.84;5034115;28;20037;-77
2023/04/17 08:15:53;;;;;;;72.45;38.85;;;;;;;9.42;100.00;102669.19;5017423;28;20041;-76
2023/04/17 08:18:19;;;;;;;72.97;38.20;;;;;;;9.24;100.00;102670.44;5000880;28;20049;-78
2023/04/17 08:20:46;;;;;;;79.40;40.42;;;;;;;9.32;100.00;102665.84;5047171;28;20433;-78
2023/04/17 08:23:12;;;;;;;76.97;39.72;;;;;;;9.50;100.00;102674.34;5033356;28;20397;-78
2023/04/17 08:25:38;;;;;;;76.63;40.38;;;;;;;9.49;100.00;102683.28;5033132;28;20507;-78
2023/04/17 08:28:05;;;;;;;63.10;35.75;;;;;;;9.87;100.00;102677.06;5052355;28;20497;-80
2023/04/17 08:30:31;;;;;;;70.43;34.70;;;;;;;9.86;100.00;102678.00;5033374;28;20370;-78
2023/04/17 08:32:58;;;;;;;58.92;33.67;;;;;;;9.95;100.00;102682.22;5017390;28;20064;-77
2023/04/17 08:35:25;;;;;;;59.70;33.80;;;;;;;10.09;100.00;102679.25;5010734;28;20039;-78
2023/04/17 08:37:54;;;;;;;58.47;32.08;;;;;;;10.42;100.00;102687.38;5051971;28;20037;-78
2023/04/17 08:40:22;;;;;;;57.63;32.97;;;;;;;10.55;100.00;102688.81;5014300;28;20072;-78
2023/04/17 08:42:49;;;;;;;58.97;34.67;;;;;;;10.65;100.00;102690.31;5031455;28;20037;-80
2023/04/17 08:45:16;;;;;;;58.47;32.90;;;;;;;10.53;100.00;102689.75;5012871;28;20399;-77
2023/04/17 08:47:42;;;;;;;59.25;35.42;;;;;;;10.44;100.00;102681.09;5002190;28;20398;-77
2023/04/17 08:50:14;;;;;;;55.08;32.15;;;;;;;10.68;100.00;102689.38;5050047;28;20036;-78
2023/04/17 08:52:45;;;;;;;56.20;32.10;;;;;;;11.04;100.00;102682.16;5008489;28;20087;-78
2023/04/17 08:55:13;;;;;;;60.78;32.10;;;;;;;11.19;100.00;102686.19;5008455;28;20401;-78
2023/04/17 08:58:05;;;;;;;52.83;30.70;;;;;;;11.95;100.00;102686.66;5033107;28;20406;-78
2023/04/17 09:00:36;;;;;;;51.10;29.20;;;;;;;12.09;100.00;102694.25;5017568;28;20033;-79
2023/04/17 09:03:04;;;;;;;54.28;32.47;;;;;;;11.70;100.00;102691.84;5016534;28;20471;-78
2023/04/17 09:05:37;;;;;;;49.53;29.23;;;;;;;11.60;100.00;102701.97;5012033;28;20512;-77
2023/04/17 09:08:16;;;;;;;46.47;28.95;;;;;;;11.32;100.00;102686.72;4996340;28;20045;-78
2023/04/17 09:10:46;;;;;;;46.53;28.65;;;;;;;11.19;100.00;102690.66;5031153;28;20029;-77
2023/04/17 09:13:14;;;;;;;46.85;29.63;;;;;;;11.13;100.00;102685.50;5031704;28;20040;-77
2023/04/17 09:15:42;;;;;;;46.78;27.95;;;;;;;11.20;100.00;102689.72;5031770;28;20044;-77
2023/04/17 09:18:25;;;;;;;44.55;27.02;;;;;;;11.16;100.00;102696.09;5030004;28;20131;-77
2023/04/17 09:20:52;;;;;;;49.97;30.27;;;;;;;11.19;100.00;102699.56;5011117;28;20112;-78
2023/04/17 09:23:20;;;;;;;46.03;27.33;;;;;;;11.11;100.00;102696.25;5029218;28;20033;-78
2023/04/17 09:25:46;;;;;;;45.83;27.05;;;;;;;11.34;100.00;102700.06;5027402;28;20034;-78
2023/04/17 09:28:14;;;;;;;41.58;25.83;;;;;;;11.68;100.00;102693.69;4984203;28;20069;-78
2023/04/17 09:30:41;;;;;;;42.42;25.60;;;;;;;12.11;100.00;102706.63;5013969;28;20469;-78
2023/04/17 09:33:09;;;;;;;45.15;26.55;;;;;;;11.99;100.00;102704.38;5028297;28;20059;-78
2023/04/17 09:35:39;;;;;;;44.53;26.38;;;;;;;12.29;100.00;102705.19;5028907;28;20030;-78
2023/04/17 09:38:06;;;;;;;42.80;26.60;;;;;;;12.01;100.00;102700.72;5029901;28;20056;-78
2023/04/17 09:40:40;;;;;;;42.85;25.80;;;;;;;11.96;100.00;102697.28;5028837;28;20398;-76
2023/04/17 09:43:07;;;;;;;48.78;28.67;;;;;;;11.77;100.00;102705.00;5011817;28;20042;-78
2023/04/17 09:45:35;;;;;;;45.25;26.75;;;;;;;11.81;100.00;102703.09;5011869;28;20041;-77
2023/04/17 09:48:12;;;;;;;40.05;25.50;;;;;;;12.12;100.00;102710.22;5029616;28;20033;-78
2023/04/17 09:50:39;;;;;;;40.88;25.08;;;;;;;12.17;100.00;102708.25;5011699;28;20045;-79
2023/04/17 09:53:06;;;;;;;39.40;26.98;;;;;;;12.65;100.00;102704.84;4995502;28;20116;-78
2023/04/17 09:55:33;;;;;;;35.90;24.35;;;;;;;12.91;100.00;102716.47;4996176;28;20036;-76
2023/04/17 09:58:05;;;;;;;35.45;24.13;;;;;;;13.57;100.00;102711.44;5029072;28;20120;-77
2023/04/17 10:00:31;;;;;;;36.40;23.75;;;;;;;14.06;100.00;102714.88;5030001;28;20442;-76
2023/04/17 10:02:58;;;;;;;34.35;23.60;;;;;;;14.37;100.00;102723.47;5031440;28;20037;-76
2023/04/17 10:05:27;;;;;;;36.85;22.75;;;;;;;14.23;100.00;102721.38;5012215;28;20037;-76
2023/04/17 10:07:55;;;;;;;42.75;23.02;;;;;;;14.22;100.00;102714.25;5024566;28;20041;-76
2023/04/17 10:10:30;;;;;;;35.72;23.15;;;;;;;14.49;100.00;102717.59;5009343;28;20060;-76
2023/04/17 10:12:58;;;;;;;46.95;25.02;;;;;;;14.46;100.00;102677.41;5008992;28;20038;-78
2023/04/17 10:15:25;;;;;;;35.60;22.80;;;;;;;14.72;100.00;102708.59;5030045;28;20037;-76
2023/04/17 10:17:56;;;;;;;34.33;22.65;;;;;;;13.72;100.00;102709.97;4993428;28;20364;-77
2023/04/17 10:20:23;;;;;;;36.53;24.60;;;;;;;13.24;100.00;102710.84;5030261;28;20441;-77
2023/04/17 10:22:55;;;;;;;34.10;23.70;;;;;;;13.37;100.00;102709.50;5014470;28;20032;-76
2023/04/17 10:25:26;;;;;;;32.78;23.42;;;;;;;13.67;100.00;102712.81;5028560;28;20037;-77
2023/04/17 10:28:02;;;;;;;36.83;22.25;;;;;;;14.45;100.00;102716.84;4998360;28;20251;-78
2023/04/17 10:31:00;;;;;;;32.63;22.33;;;;;;;14.95;100.00;102712.09;5014442;28;20520;-76
2023/04/17 10:33:27;;;;;;;32.55;21.30;;;;;;;15.67;100.00;102714.19;5030182;28;20053;-76
2023/04/17 10:35:53;;;;;;;32.72;21.77;;;;;;;16.40;100.00;102716.97;5029936;28;20033;-76
2023/04/17 10:38:33;;;;;;;30.00;21.67;;;;;;;17.01;100.00;102721.09;5015018;28;20036;-76
2023/04/17 10:41:07;;;;;;;33.42;26.02;;;;;;;17.51;100.00;102720.19;5032302;28;20037;-77
2023/04/17 10:43:34;;;;;;;27.13;20.33;;;;;;;17.29;100.00;102712.38;5027844;28;20448;-78
2023/04/17 10:46:13;;;;;;;32.45;19.92;;;;;;;17.16;100.00;102722.09;5008581;28;20074;-80
2023/04/17 10:48:55;;;;;;;29.42;20.23;;;;;;;16.47;100.00;102719.31;5022352;28;20075;-78
2023/04/17 10:51:25;;;;;;;28.25;20.48;;;;;;;16.99;100.00;102723.00;5016229;28;20040;-78
2023/04/17 10:54:05;;;;;;;33.10;22.60;;;;;;;16.46;100.00;102705.91;5041589;28;20056;-80
2023/04/17 10:56:39;;;;;;;25.88;18.85;;;;;;;16.34;100.00;102703.81;5019837;28;20040;-77
2023/04/17 10:59:07;;;;;;;28.15;20.50;;;;;;;16.14;100.00;102697.63;5030398;28;20025;-78
2023/04/17 11:01:47;;;;;;;28.70;20.75;;;;;;;15.54;100.00;102702.25;5028099;28;20401;-77
2023/04/17 11:04:20;;;;;;;34.80;20.52;;;;;;;16.15;100.00;102693.94;5040836;28;20501;-77
2023/04/17 11:06:47;;;;;;;30.02;20.50;;;;;;;16.12;100.00;102691.44;5000176;28;20460;-77
2023/04/17 11:09:14;;;;;;;27.88;20.80;;;;;;;16.20;100.00;102691.03;5019461;28;20059;-77
2023/04/17 11:11:42;;;;;;;29.90;21.83;;;;;;;16.60;100.00;102687.19;5036523;28;20044;-78